createdAt,value
2019-03-01T00:01:39.094Z,38.23
2019-03-01T00:04:40.914Z,41.33
2019-03-01T00:07:42.632Z,37.97
2019-03-01T00:10:44.952Z,41.67
2019-03-01T00:13:45.833Z,68.47
2019-03-01T00:16:48.341Z,71.77
2019-03-01T00:19:50.011Z,53.20
2019-03-01T00:22:49.688Z,44.23
2019-03-01T00:25:52.994Z,43.23
2019-03-01T00:28:54.455Z,44.60
2019-03-01T00:31:55.974Z,40.03
2019-03-01T00:34:57.314Z,44.10
2019-03-01T00:37:58.975Z,40.43
2019-03-01T00:40:59.644Z,42.80
2019-03-01T00:44:01.456Z,43.60
2019-03-01T00:47:03.585Z,40.17
2019-03-01T00:50:05.403Z,45.20
2019-03-01T00:53:06.772Z,43.63
2019-03-01T00:56:16.742Z,38.80
2019-03-01T00:59:18.964Z,38.20
2019-03-01T01:05:03.766Z,39.37
2019-03-01T01:10:52.385Z,36.80
2019-03-01T01:13:59.884Z,39.93
2019-03-01T01:17:01.334Z,35.17
2019-03-01T01:20:03.286Z,36.13
2019-03-01T01:23:04.142Z,35.33
2019-03-01T01:26:06.676Z,33.10
2019-03-01T01:29:08.362Z,37.50
2019-03-01T01:32:10.334Z,34.00
2019-03-01T01:35:12.136Z,34.77
2019-03-01T01:38:13.963Z,29.77
2019-03-01T01:41:15.890Z,30.43
2019-03-01T01:44:17.788Z,31.97
2019-03-01T01:47:19.555Z,31.27
2019-03-01T01:50:21.305Z,28.20
2019-03-01T01:53:23.009Z,37.17
2019-03-01T01:56:27.672Z,45.30
2019-03-01T01:59:29.465Z,44.43
2019-03-01T02:02:31.336Z,43.23
2019-03-01T02:08:16.305Z,41.77
2019-03-01T02:11:18.565Z,47.73
2019-03-01T02:14:19.225Z,47.93
2019-03-01T02:17:19.809Z,39.27
2019-03-01T02:20:21.393Z,33.30
2019-03-01T02:23:23.239Z,34.43
2019-03-01T02:26:25.228Z,35.60
2019-03-01T02:29:27.034Z,31.80
2019-03-01T02:32:28.524Z,33.73
2019-03-01T02:35:30.279Z,34.23
2019-03-01T02:38:32.013Z,32.43
2019-03-01T02:41:33.764Z,31.83
2019-03-01T02:44:35.399Z,30.37
2019-03-01T02:47:37.083Z,33.20
2019-03-01T02:50:38.541Z,32.93
2019-03-01T02:53:39.345Z,33.47
2019-03-01T02:59:24.078Z,39.60
2019-03-01T03:05:04.283Z,35.27
2019-03-01T03:08:06.940Z,31.43
2019-03-01T03:11:07.935Z,34.67
2019-03-01T03:14:09.507Z,33.33
2019-03-01T03:17:11.173Z,34.57
2019-03-01T03:20:13.124Z,33.37
2019-03-01T03:23:14.935Z,32.83
2019-03-01T03:26:16.756Z,33.00
2019-03-01T03:29:18.886Z,32.03
2019-03-01T03:32:20.755Z,34.37
2019-03-01T03:35:22.651Z,34.80
2019-03-01T03:38:24.328Z,32.03
2019-03-01T03:41:26.301Z,37.90
2019-03-01T03:44:28.019Z,32.57
2019-03-01T03:47:29.874Z,34.90
2019-03-01T03:50:32.152Z,36.33
2019-03-01T03:53:33.931Z,39.27
2019-03-01T03:56:35.752Z,27.97
2019-03-01T03:59:37.436Z,30.60
2019-03-01T04:02:39.292Z,33.90
2019-03-01T04:05:41.144Z,34.40
2019-03-01T04:08:43.084Z,32.70
2019-03-01T04:11:45.175Z,29.77
2019-03-01T04:14:46.960Z,35.00
2019-03-01T04:17:49.128Z,33.47
2019-03-01T04:20:51.292Z,33.10
2019-03-01T04:23:53.053Z,36.83
2019-03-01T04:26:54.735Z,33.10
2019-03-01T04:29:56.551Z,35.23
2019-03-01T04:32:58.623Z,31.13
2019-03-01T04:36:00.414Z,31.13
2019-03-01T04:39:02.135Z,31.07
2019-03-01T04:42:04.186Z,29.93
2019-03-01T04:45:06.183Z,32.73
2019-03-01T04:48:08.033Z,32.20
2019-03-01T04:51:10.463Z,32.60
2019-03-01T04:54:12.023Z,33.60
2019-03-01T04:57:13.794Z,33.77
2019-03-01T05:00:15.814Z,30.70
2019-03-01T05:03:22.983Z,32.47
2019-03-01T05:06:25.291Z,30.17
2019-03-01T05:09:27.274Z,32.28
2019-03-01T05:12:29.224Z,33.13
2019-03-01T05:15:30.993Z,46.00
2019-03-01T05:18:32.994Z,45.77
2019-03-01T05:21:34.002Z,43.10
2019-03-01T05:24:35.454Z,40.27
2019-03-01T05:27:37.546Z,33.30
2019-03-01T05:30:39.360Z,35.60
2019-03-01T05:33:41.392Z,37.00
2019-03-01T05:36:43.354Z,30.13
2019-03-01T05:39:45.043Z,37.97
2019-03-01T05:42:47.092Z,33.57
2019-03-01T05:45:48.987Z,31.77
2019-03-01T05:48:59.828Z,29.73
2019-03-01T05:52:01.575Z,33.40
2019-03-01T05:55:03.211Z,29.50
2019-03-01T05:58:05.087Z,30.23
2019-03-01T06:01:06.972Z,29.33
2019-03-01T06:04:09.026Z,30.30
2019-03-01T06:07:10.682Z,31.67
2019-03-01T06:10:12.582Z,33.07
2019-03-01T06:13:13.471Z,29.40
2019-03-01T06:16:15.246Z,31.97
2019-03-01T06:19:17.106Z,32.13
2019-03-01T06:22:19.031Z,48.47
2019-03-01T06:25:21.159Z,32.17
2019-03-01T06:28:23.016Z,31.90
2019-03-01T06:31:24.823Z,35.93
2019-03-01T06:37:50.923Z,28.70
2019-03-01T06:40:56.072Z,32.93
2019-03-01T06:43:58.531Z,36.33
2019-03-01T06:46:59.607Z,34.20
2019-03-01T06:53:23.234Z,30.43
2019-03-01T06:56:23.834Z,45.13
2019-03-01T06:59:25.970Z,31.80
2019-03-01T07:05:42.662Z,28.10
2019-03-01T07:11:55.610Z,31.10
2019-03-01T07:14:57.360Z,30.87
2019-03-01T07:17:59.161Z,27.43
2019-03-01T07:21:01.055Z,30.33
2019-03-01T07:24:02.919Z,33.93
2019-03-01T07:27:04.665Z,30.63
2019-03-01T07:30:16.688Z,31.73
2019-03-01T07:33:23.233Z,33.07
2019-03-01T07:36:23.304Z,39.33
2019-03-01T07:42:44.519Z,32.20
2019-03-01T07:46:00.898Z,42.13
2019-03-01T07:49:03.561Z,31.47
2019-03-01T07:52:14.804Z,32.37
2019-03-01T07:55:16.628Z,36.80
2019-03-01T07:58:17.691Z,36.70
2019-03-01T08:01:25.734Z,30.80
2019-03-01T08:04:29.565Z,31.77
2019-03-01T08:10:43.372Z,32.10
2019-03-01T08:13:43.385Z,31.53
2019-03-01T08:16:45.212Z,34.50
2019-03-01T08:19:47.282Z,37.87
2019-03-01T08:22:49.749Z,36.87
2019-03-01T08:25:51.812Z,35.30
2019-03-01T08:28:54.693Z,39.87
2019-03-01T08:31:56.633Z,42.07
2019-03-01T08:35:05.237Z,43.57
2019-03-01T08:38:07.228Z,43.23
2019-03-01T08:41:08.855Z,46.90
2019-03-01T08:44:14.063Z,52.43
2019-03-01T08:47:13.934Z,41.03
2019-03-01T08:50:15.885Z,41.10
2019-03-01T08:53:20.979Z,49.17
2019-03-01T08:56:26.146Z,44.67
2019-03-01T08:59:24.390Z,44.37
2019-03-01T09:02:29.155Z,50.23
2019-03-01T09:05:31.063Z,50.50
2019-03-01T09:08:32.932Z,52.97
2019-03-01T09:11:34.939Z,59.90
2019-03-01T09:14:36.579Z,72.97
2019-03-01T09:17:38.390Z,81.03
2019-03-01T09:20:40.183Z,80.93
2019-03-01T09:26:51.713Z,80.67
2019-03-01T09:30:03.344Z,92.43
2019-03-01T09:33:03.378Z,96.67
2019-03-01T09:39:06.936Z,97.40
2019-03-01T09:58:23.680Z,92.60
2019-03-01T10:45:02.774Z,85.53
2019-03-01T10:48:04.837Z,64.10
2019-03-01T10:51:06.951Z,73.40
2019-03-01T10:54:08.880Z,65.77
2019-03-01T10:57:10.744Z,63.33
2019-03-01T11:00:11.808Z,63.20
2019-03-01T11:03:13.219Z,54.33
2019-03-01T11:06:14.768Z,43.53
2019-03-01T11:09:16.755Z,42.77
2019-03-01T11:12:18.627Z,30.00
2019-03-01T11:15:20.582Z,32.03
2019-03-01T11:18:22.675Z,26.20
2019-03-01T11:21:24.399Z,25.20
2019-03-01T11:24:26.320Z,24.20
2019-03-01T11:27:28.270Z,25.83
2019-03-01T11:30:29.298Z,27.77
2019-03-01T11:33:30.985Z,26.57
2019-03-01T11:36:33.039Z,26.90
2019-03-01T11:39:43.659Z,31.83
2019-03-01T11:42:45.232Z,26.90
2019-03-01T11:45:46.959Z,24.00
2019-03-01T11:48:48.976Z,21.87
2019-03-01T11:51:51.014Z,27.60
2019-03-01T11:54:52.779Z,23.30
2019-03-01T11:57:54.599Z,28.93
2019-03-01T12:00:56.432Z,20.27
2019-03-01T12:03:58.096Z,24.07
2019-03-01T12:07:00.119Z,29.70
2019-03-01T12:10:01.896Z,22.97
2019-03-01T12:13:03.812Z,25.03
2019-03-01T12:16:05.968Z,29.90
2019-03-01T12:19:07.906Z,31.33
2019-03-01T12:22:17.060Z,38.03
2019-03-01T12:25:15.774Z,38.97
2019-03-01T12:28:17.622Z,35.37
2019-03-01T12:31:19.438Z,31.13
2019-03-01T12:34:21.316Z,29.77
2019-03-01T12:37:23.133Z,27.67
2019-03-01T12:40:25.079Z,32.27
2019-03-01T12:43:29.766Z,26.33
2019-03-01T12:46:31.490Z,23.90
2019-03-01T12:49:33.271Z,22.90
2019-03-01T12:52:35.172Z,21.93
2019-03-01T12:55:37.118Z,22.73
2019-03-01T12:58:44.413Z,20.40
2019-03-01T13:01:49.200Z,26.00
2019-03-01T13:04:53.372Z,19.67
2019-03-01T13:07:54.576Z,20.60
2019-03-01T13:10:57.264Z,18.47
2019-03-01T13:13:59.298Z,17.40
2019-03-01T13:17:01.742Z,23.13
2019-03-01T13:20:04.219Z,22.53
2019-03-01T13:23:06.260Z,17.87
2019-03-01T13:26:08.347Z,19.50
2019-03-01T13:29:10.129Z,18.43
2019-03-01T13:32:19.971Z,17.73
2019-03-01T13:35:27.594Z,21.90
2019-03-01T13:38:30.409Z,15.13
2019-03-01T13:41:34.047Z,16.43
2019-03-01T13:44:39.830Z,15.83
2019-03-01T13:47:44.012Z,19.47
2019-03-01T13:50:44.839Z,18.07
2019-03-01T13:53:49.241Z,11.23
2019-03-01T13:56:50.902Z,9.77
2019-03-01T13:59:52.687Z,8.23
2019-03-01T14:02:54.862Z,7.43
2019-03-01T14:05:56.679Z,10.30
2019-03-01T14:08:58.407Z,11.90
2019-03-01T14:12:00.407Z,13.63
2019-03-01T14:18:15.004Z,7.07
2019-03-01T14:21:16.815Z,5.40
2019-03-01T14:24:18.899Z,8.30
2019-03-01T14:27:20.448Z,8.83
2019-03-01T14:30:25.280Z,9.17
2019-03-01T14:33:25.389Z,7.53
2019-03-01T14:36:27.244Z,9.65
2019-03-01T14:39:28.816Z,7.40
2019-03-01T14:42:30.771Z,7.97
2019-03-01T14:45:32.803Z,11.90
2019-03-01T14:48:39.737Z,8.70
2019-03-01T14:51:50.728Z,8.27
2019-03-01T14:54:52.447Z,8.23
2019-03-01T14:57:54.204Z,5.10
2019-03-01T15:00:56.147Z,7.87
2019-03-01T15:03:58.179Z,4.63
2019-03-01T15:07:00.007Z,6.23
2019-03-01T15:10:01.856Z,7.30
2019-03-01T15:13:03.695Z,6.73
2019-03-01T15:16:06.062Z,6.83
2019-03-01T15:19:08.050Z,9.20
2019-03-01T15:22:12.939Z,7.33
2019-03-01T15:25:13.467Z,9.23
2019-03-01T15:28:16.651Z,5.83
2019-03-01T15:31:19.388Z,7.23
2019-03-01T15:34:24.048Z,10.87
2019-03-01T15:37:26.021Z,4.53
2019-03-01T15:40:37.206Z,9.13
2019-03-01T15:43:39.043Z,8.80
2019-03-01T15:46:40.874Z,4.33
2019-03-01T15:49:42.674Z,5.23
2019-03-01T15:52:49.415Z,6.10
2019-03-01T15:55:49.171Z,4.40
2019-03-01T15:58:50.976Z,11.67
2019-03-01T16:01:52.916Z,7.77
2019-03-01T16:04:54.815Z,7.97
2019-03-01T16:07:56.799Z,8.03
2019-03-01T16:10:58.447Z,6.10
2019-03-01T16:14:04.497Z,7.30
2019-03-01T16:17:06.524Z,23.00
2019-03-01T16:20:11.384Z,3.90
2019-03-01T16:23:13.302Z,5.23
2019-03-01T16:26:15.260Z,5.43
2019-03-01T16:29:17.111Z,8.70
2019-03-01T16:32:18.822Z,8.83
2019-03-01T16:35:20.892Z,9.40
2019-03-01T16:38:27.843Z,8.88
2019-03-01T16:41:29.782Z,4.23
2019-03-01T16:44:31.632Z,6.27
2019-03-01T16:47:33.623Z,6.57
2019-03-01T16:53:36.625Z,7.53
2019-03-01T16:56:38.534Z,5.47
2019-03-01T16:59:42.802Z,7.97
2019-03-01T17:03:02.288Z,12.60
2019-03-01T17:06:10.457Z,6.47
2019-03-01T17:09:15.357Z,8.73
2019-03-01T17:12:16.643Z,11.27
2019-03-01T17:18:44.600Z,6.57
2019-03-01T17:21:50.987Z,6.13
2019-03-01T17:24:55.070Z,8.33
2019-03-01T17:27:55.944Z,9.73
2019-03-01T17:30:55.820Z,5.70
2019-03-01T17:33:58.094Z,5.30
2019-03-01T17:36:59.825Z,9.53
2019-03-01T17:43:15.327Z,11.20
2019-03-01T17:46:17.188Z,7.00
2019-03-01T17:49:19.337Z,6.13
2019-03-01T17:52:21.431Z,5.57
2019-03-01T17:55:24.354Z,9.07
2019-03-01T17:58:25.831Z,5.57
2019-03-01T18:01:27.612Z,11.60
2019-03-01T18:04:29.363Z,3.53
2019-03-01T18:07:31.175Z,11.23
2019-03-01T18:10:33.083Z,7.73
2019-03-01T18:13:35.019Z,11.60
2019-03-01T18:16:36.836Z,6.93
2019-03-01T18:19:38.670Z,14.90
2019-03-01T18:22:40.431Z,7.63
2019-03-01T18:25:47.232Z,7.47
2019-03-01T18:28:49.035Z,7.50
2019-03-01T18:31:51.002Z,4.43
2019-03-01T18:34:52.819Z,7.70
2019-03-01T18:37:55.902Z,6.07
2019-03-01T18:40:58.554Z,4.23
2019-03-01T18:44:03.203Z,5.90
2019-03-01T18:47:05.118Z,5.70
2019-03-01T18:50:06.814Z,6.50
2019-03-01T18:53:08.767Z,5.90
2019-03-01T18:56:11.647Z,7.13
2019-03-01T18:59:13.190Z,5.00
2019-03-01T19:02:15.157Z,5.93
2019-03-01T19:05:16.866Z,7.93
2019-03-01T19:08:18.618Z,5.57
2019-03-01T19:11:20.824Z,9.60
2019-03-01T19:14:22.761Z,5.90
2019-03-01T19:17:24.831Z,5.47
2019-03-01T19:20:27.737Z,4.37
2019-03-01T19:23:32.308Z,6.37
2019-03-01T19:26:36.577Z,8.57
2019-03-01T19:29:39.011Z,12.20
2019-03-01T19:32:41.510Z,9.97
2019-03-01T19:35:43.443Z,9.93
2019-03-01T19:38:46.489Z,4.60
2019-03-01T19:41:47.899Z,8.80
2019-03-01T19:44:54.869Z,6.93
2019-03-01T19:48:01.387Z,19.90
2019-03-01T19:51:01.909Z,9.90
2019-03-01T19:54:03.706Z,10.90
2019-03-01T19:57:03.234Z,7.80
2019-03-01T20:00:05.187Z,4.10
2019-03-01T20:03:10.073Z,4.60
2019-03-01T20:06:10.824Z,6.20
2019-03-01T20:09:12.670Z,4.17
2019-03-01T20:14:58.892Z,5.30
2019-03-01T20:18:00.699Z,5.47
2019-03-01T20:21:05.745Z,7.13
2019-03-01T20:24:06.912Z,2.90
2019-03-01T20:27:14.247Z,7.27
2019-03-01T20:30:15.056Z,8.13
2019-03-01T20:33:16.654Z,9.47
2019-03-01T20:36:18.721Z,5.73
2019-03-01T20:39:20.623Z,6.57
2019-03-01T20:42:24.460Z,10.40
2019-03-01T20:45:29.930Z,7.93
2019-03-01T20:48:32.187Z,5.67
2019-03-01T20:51:34.544Z,7.10
2019-03-01T20:54:36.531Z,11.20
2019-03-01T20:57:38.291Z,4.70
2019-03-01T21:00:40.338Z,8.70
2019-03-01T21:03:42.255Z,6.70
2019-03-01T21:06:44.335Z,6.53
2019-03-01T21:09:51.219Z,6.43
2019-03-01T21:12:52.783Z,12.85
2019-03-01T21:15:54.925Z,12.10
2019-03-01T21:18:56.325Z,9.70
2019-03-01T21:21:58.059Z,6.07
2019-03-01T21:25:03.107Z,7.80
2019-03-01T21:28:03.760Z,6.57
2019-03-01T21:31:05.736Z,5.60
2019-03-01T21:34:07.659Z,4.40
2019-03-01T21:37:09.486Z,5.33
2019-03-01T21:40:11.259Z,5.23
2019-03-01T21:43:13.356Z,6.27
2019-03-01T21:46:15.107Z,5.40
2019-03-01T21:49:16.880Z,6.60
2019-03-01T21:52:18.615Z,4.87
2019-03-01T21:55:20.500Z,5.80
2019-03-01T21:58:22.418Z,5.90
2019-03-01T22:01:22.499Z,4.23
2019-03-01T22:04:24.479Z,3.87
2019-03-01T22:07:26.222Z,10.73
2019-03-01T22:10:35.657Z,3.97
2019-03-01T22:13:38.007Z,9.03
2019-03-01T22:16:39.674Z,4.57
2019-03-01T22:19:48.079Z,8.17
2019-03-01T22:22:50.368Z,9.40
2019-03-01T22:25:52.082Z,8.90
2019-03-01T22:28:54.284Z,7.13
2019-03-01T22:31:56.499Z,10.30
2019-03-01T22:34:58.335Z,4.70
2019-03-01T22:38:01.026Z,3.53
2019-03-01T22:43:58.350Z,8.00
2019-03-01T22:47:00.735Z,5.13
2019-03-01T22:50:04.046Z,6.27
2019-03-01T22:53:07.355Z,5.03
2019-03-01T22:56:11.985Z,3.87
2019-03-01T22:59:12.618Z,4.00
2019-03-01T23:02:15.067Z,5.47
2019-03-01T23:05:15.917Z,5.97
2019-03-01T23:08:17.629Z,7.53
2019-03-01T23:11:19.391Z,4.90
2019-03-01T23:14:20.939Z,8.00
2019-03-01T23:17:23.015Z,5.03
2019-03-01T23:20:26.675Z,6.33
2019-03-01T23:23:28.446Z,4.33
2019-03-01T23:26:30.415Z,5.77
2019-03-01T23:29:32.435Z,5.23
2019-03-01T23:32:34.114Z,9.30
2019-03-01T23:35:36.063Z,4.80
2019-03-01T23:38:38.091Z,4.33
2019-03-01T23:41:39.775Z,6.50
2019-03-01T23:44:41.626Z,4.83
2019-03-01T23:47:44.579Z,5.40
2019-03-01T23:50:46.382Z,5.80
2019-03-01T23:53:46.090Z,7.87
2019-03-01T23:56:46.974Z,8.43
2019-03-01T23:59:48.463Z,6.00
